Terminal Aerodrome Forecast
Issued by NWS

Home | Current Version | Previous Version | Text Only | Print | Product List | Glossary On
Versions: 1 2 3 4 5 6 7 8 9 10 11 12 13 14 15 16 17 18 19 20 21 22
000
FTUS44 KJAN 270520
TAFHKS
TAF
KHKS 270520Z 2706/2806 34014G22KT P6SM -RA SCT007 BKN015 OVC025
     FM270700 34006G15KT P6SM OVC015
     FM271300 35004KT P6SM BKN100
     FM271900 32010G17KT P6SM OVC050
     FM280000 33010KT P6SM BKN050
     FM280200 35007KT P6SM SKC=

USA.gov is the U.S. government's official web portal to all federal, state and local government web resources and services.